EJM110 KHEF-KSYR
Flight info
| Callsign | EJM110 |
|---|---|
| Flight time | 1h 0m |
| Altitude | 39000 |
| Route | HIICH2 JERES Q221 MICAH MEMMS |
| Aircraft | CL60/M-SBDE1E2E3FGHIJ1J4J5J7M3RWXYZ/LB1V1D1 |
Departure
| Time | 2026-05-06 19:26 |
|---|---|
| Airport | Manassas Regional Airport/Harry P. Davis Field (KHEF) |
Arrival
| Time | 2026-05-06 20:26 |
|---|---|
| Airport | Syracuse Hancock International Airport (KSYR) |
| Time | Latitude | Longitude | Altitude | Speed | Heading |
|---|---|---|---|---|---|
| 2026-05-06 18:32 | 38.72471 | -77.51115 | 185 ft | 0 kts | 206° |
| 2026-05-06 19:22 | 38.72467 | -77.51118 | 185 ft | 2 kts | 207° |
| 2026-05-06 19:23 | 38.72450 | -77.51151 | 185 ft | 6 kts | 242° |
| 2026-05-06 19:23 | 38.72445 | -77.51214 | 185 ft | 8 kts | 317° |
| 2026-05-06 19:23 | 38.72511 | -77.51261 | 187 ft | 12 kts | 330° |
| 2026-05-06 19:23 | 38.72591 | -77.51319 | 188 ft | 12 kts | 330° |
| 2026-05-06 19:24 | 38.72674 | -77.51376 | 190 ft | 14 kts | 331° |
| 2026-05-06 19:24 | 38.72769 | -77.51449 | 192 ft | 16 kts | 329° |
| 2026-05-06 19:24 | 38.72840 | -77.51498 | 193 ft | 12 kts | 332° |
| 2026-05-06 19:24 | 38.72901 | -77.51565 | 194 ft | 11 kts | 256° |
| 2026-05-06 19:25 | 38.72864 | -77.51651 | 194 ft | 11 kts | 241° |
| 2026-05-06 19:25 | 38.72819 | -77.51751 | 193 ft | 14 kts | 240° |
| 2026-05-06 19:25 | 38.72775 | -77.51852 | 193 ft | 7 kts | 238° |
| 2026-05-06 19:25 | 38.72744 | -77.51859 | 193 ft | 7 kts | 149° |
| 2026-05-06 19:26 | 38.72553 | -77.51721 | 190 ft | 79 kts | 150° |
| 2026-05-06 19:26 | 38.71768 | -77.51153 | 254 ft | 167 kts | 153° |
| 2026-05-06 19:26 | 38.70618 | -77.50428 | 930 ft | 194 kts | 168° |
| 2026-05-06 19:26 | 38.69286 | -77.50590 | 2011 ft | 203 kts | 208° |
| 2026-05-06 19:27 | 38.68178 | -77.51833 | 2730 ft | 228 kts | 233° |
| 2026-05-06 19:27 | 38.67239 | -77.53520 | 3153 ft | 229 kts | 235° |
| 2026-05-06 19:27 | 38.66322 | -77.55184 | 3586 ft | 230 kts | 236° |
| 2026-05-06 19:27 | 38.65395 | -77.56856 | 4015 ft | 231 kts | 236° |
| 2026-05-06 19:28 | 38.64466 | -77.58527 | 4443 ft | 231 kts | 236° |
| 2026-05-06 19:28 | 38.63531 | -77.60210 | 4875 ft | 232 kts | 238° |
| 2026-05-06 19:28 | 38.62887 | -77.62090 | 5310 ft | 232 kts | 259° |
| 2026-05-06 19:28 | 38.62995 | -77.64145 | 5747 ft | 236 kts | 283° |
| 2026-05-06 19:29 | 38.63703 | -77.66062 | 6181 ft | 242 kts | 300° |
| 2026-05-06 19:29 | 38.64922 | -77.67602 | 6612 ft | 251 kts | 320° |
| 2026-05-06 19:29 | 38.66539 | -77.68491 | 7039 ft | 264 kts | 341° |
| 2026-05-06 19:29 | 38.68435 | -77.68458 | 7479 ft | 280 kts | 2° |
| 2026-05-06 19:30 | 38.70396 | -77.67989 | 7914 ft | 285 kts | 4° |
| 2026-05-06 19:30 | 38.72408 | -77.67515 | 8864 ft | 303 kts | 3° |
| 2026-05-06 19:30 | 38.74437 | -77.67031 | 10397 ft | 303 kts | 3° |
| 2026-05-06 19:30 | 38.76498 | -77.66543 | 11764 ft | 308 kts | 2° |
| 2026-05-06 19:31 | 38.78667 | -77.66039 | 12719 ft | 326 kts | 2° |
| 2026-05-06 19:31 | 38.80940 | -77.65507 | 13700 ft | 340 kts | 2° |
| 2026-05-06 19:31 | 38.85625 | -77.64396 | 15932 ft | 352 kts | 1° |
| 2026-05-06 19:32 | 38.88108 | -77.63811 | 16615 ft | 363 kts | 1° |
| 2026-05-06 19:32 | 38.90620 | -77.63216 | 16877 ft | 371 kts | 0° |
| 2026-05-06 19:32 | 38.93192 | -77.62608 | 17602 ft | 382 kts | 0° |
| 2026-05-06 19:32 | 38.95790 | -77.61982 | 18798 ft | 380 kts | 0° |
| 2026-05-06 19:33 | 38.98400 | -77.61359 | 19782 ft | 382 kts | 360° |
| 2026-05-06 19:33 | 39.01033 | -77.60734 | 20582 ft | 389 kts | 359° |
| 2026-05-06 19:33 | 39.03696 | -77.60098 | 21473 ft | 392 kts | 359° |
| 2026-05-06 19:33 | 39.06399 | -77.59455 | 22220 ft | 397 kts | 359° |
| 2026-05-06 19:34 | 39.09117 | -77.58807 | 22913 ft | 404 kts | 358° |
| 2026-05-06 19:34 | 39.11940 | -77.58135 | 23687 ft | 408 kts | 358° |
| 2026-05-06 19:34 | 39.14696 | -77.57476 | 24385 ft | 413 kts | 358° |
| 2026-05-06 19:34 | 39.17571 | -77.56792 | 25007 ft | 419 kts | 358° |
| 2026-05-06 19:35 | 39.20450 | -77.56102 | 25698 ft | 423 kts | 358° |
| 2026-05-06 19:35 | 39.23361 | -77.55404 | 26321 ft | 427 kts | 358° |
| 2026-05-06 19:35 | 39.26315 | -77.54697 | 26907 ft | 431 kts | 358° |
| 2026-05-06 19:35 | 39.29264 | -77.53988 | 27572 ft | 433 kts | 358° |
| 2026-05-06 19:36 | 39.32240 | -77.53275 | 28115 ft | 436 kts | 358° |
| 2026-05-06 19:36 | 39.35267 | -77.52548 | 28581 ft | 442 kts | 358° |
| 2026-05-06 19:36 | 39.38293 | -77.51819 | 29160 ft | 443 kts | 357° |
| 2026-05-06 19:36 | 39.41322 | -77.51090 | 29593 ft | 448 kts | 358° |
| 2026-05-06 19:37 | 39.44437 | -77.50343 | 30004 ft | 452 kts | 358° |
| 2026-05-06 19:37 | 39.47503 | -77.49601 | 30469 ft | 455 kts | 357° |
| 2026-05-06 19:37 | 39.50655 | -77.48841 | 30884 ft | 458 kts | 356° |
| 2026-05-06 19:37 | 39.52743 | -77.48336 | 31215 ft | 459 kts | 356° |
| 2026-05-06 19:38 | 39.56978 | -77.47316 | 31637 ft | 465 kts | 357° |
| 2026-05-06 19:38 | 39.60156 | -77.46542 | 32177 ft | 464 kts | 356° |
| 2026-05-06 19:38 | 39.63386 | -77.45799 | 32343 ft | 466 kts | 354° |
| 2026-05-06 19:38 | 39.66595 | -77.45464 | 32781 ft | 452 kts | 347° |
| 2026-05-06 19:39 | 39.69697 | -77.45408 | 33166 ft | 451 kts | 346° |
| 2026-05-06 19:39 | 39.72904 | -77.45361 | 33513 ft | 453 kts | 346° |
| 2026-05-06 19:39 | 39.76065 | -77.45312 | 33895 ft | 453 kts | 346° |
| 2026-05-06 19:39 | 39.79239 | -77.45260 | 34295 ft | 454 kts | 345° |
| 2026-05-06 19:40 | 39.82407 | -77.45209 | 34729 ft | 452 kts | 346° |
| 2026-05-06 19:40 | 39.85582 | -77.45150 | 35382 ft | 446 kts | 345° |
| 2026-05-06 19:40 | 39.88702 | -77.45097 | 35872 ft | 443 kts | 345° |
| 2026-05-06 19:40 | 39.91755 | -77.45046 | 36333 ft | 440 kts | 345° |
| 2026-05-06 19:41 | 39.94829 | -77.44991 | 36814 ft | 437 kts | 344° |
| 2026-05-06 19:41 | 39.97881 | -77.44944 | 37059 ft | 439 kts | 344° |
| 2026-05-06 19:41 | 40.00949 | -77.44895 | 37340 ft | 439 kts | 344° |
| 2026-05-06 19:41 | 40.04019 | -77.44843 | 37731 ft | 437 kts | 344° |
| 2026-05-06 19:42 | 40.07080 | -77.44793 | 37979 ft | 437 kts | 344° |
| 2026-05-06 19:42 | 40.10133 | -77.44740 | 38304 ft | 436 kts | 344° |
| 2026-05-06 19:42 | 40.13205 | -77.44572 | 38639 ft | 444 kts | 348° |
| 2026-05-06 19:42 | 40.16339 | -77.44014 | 38837 ft | 458 kts | 354° |
| 2026-05-06 19:43 | 40.19506 | -77.42967 | 38836 ft | 477 kts | 2° |
| 2026-05-06 19:43 | 40.22680 | -77.41515 | 38829 ft | 482 kts | 4° |
| 2026-05-06 19:43 | 40.29001 | -77.38553 | 38829 ft | 480 kts | 4° |
| 2026-05-06 19:44 | 40.35344 | -77.35580 | 38837 ft | 480 kts | 4° |
| 2026-05-06 19:44 | 40.41641 | -77.32623 | 38840 ft | 482 kts | 5° |
| 2026-05-06 19:45 | 40.47968 | -77.29648 | 38830 ft | 483 kts | 5° |
| 2026-05-06 19:45 | 40.54299 | -77.26662 | 38833 ft | 483 kts | 5° |
| 2026-05-06 19:46 | 40.60693 | -77.23640 | 38835 ft | 483 kts | 5° |
| 2026-05-06 19:46 | 40.67064 | -77.20626 | 38836 ft | 485 kts | 5° |
| 2026-05-06 19:47 | 40.73455 | -77.17594 | 38833 ft | 484 kts | 5° |
| 2026-05-06 19:47 | 40.79812 | -77.14571 | 38831 ft | 484 kts | 5° |
| 2026-05-06 19:48 | 40.86167 | -77.11545 | 38826 ft | 485 kts | 5° |
| 2026-05-06 19:48 | 40.92520 | -77.08513 | 38831 ft | 484 kts | 5° |
| 2026-05-06 19:49 | 40.98925 | -77.05450 | 38824 ft | 484 kts | 5° |
| 2026-05-06 19:49 | 41.05305 | -77.02393 | 38830 ft | 485 kts | 5° |
| 2026-05-06 19:50 | 41.11677 | -76.99335 | 38821 ft | 486 kts | 5° |
| 2026-05-06 19:50 | 41.18044 | -76.96271 | 38819 ft | 487 kts | 6° |
| 2026-05-06 19:51 | 41.24378 | -76.93216 | 38838 ft | 487 kts | 5° |
| 2026-05-06 19:51 | 41.30794 | -76.90115 | 38814 ft | 487 kts | 6° |
| 2026-05-06 19:52 | 41.37178 | -76.87022 | 38824 ft | 486 kts | 6° |
| 2026-05-06 19:52 | 41.43567 | -76.83923 | 38832 ft | 487 kts | 6° |
| 2026-05-06 19:53 | 41.49970 | -76.80756 | 38801 ft | 494 kts | 9° |
| 2026-05-06 19:53 | 41.53096 | -76.78669 | 38365 ft | 516 kts | 18° |
| 2026-05-06 19:53 | 41.56092 | -76.75903 | 37820 ft | 528 kts | 28° |
| 2026-05-06 19:54 | 41.58820 | -76.72519 | 37274 ft | 540 kts | 38° |
| 2026-05-06 19:54 | 41.61206 | -76.68593 | 36747 ft | 550 kts | 47° |
| 2026-05-06 19:54 | 41.63385 | -76.64310 | 36107 ft | 552 kts | 49° |
| 2026-05-06 19:54 | 41.65538 | -76.60096 | 35415 ft | 552 kts | 49° |
| 2026-05-06 19:55 | 41.67719 | -76.55826 | 34710 ft | 552 kts | 48° |
| 2026-05-06 19:55 | 41.69891 | -76.51604 | 34024 ft | 553 kts | 48° |
| 2026-05-06 19:55 | 41.72101 | -76.47341 | 33333 ft | 555 kts | 48° |
| 2026-05-06 19:55 | 41.74287 | -76.43121 | 32637 ft | 552 kts | 49° |
| 2026-05-06 19:56 | 41.76503 | -76.38894 | 31928 ft | 548 kts | 48° |
| 2026-05-06 19:56 | 41.78665 | -76.34823 | 31150 ft | 547 kts | 49° |
| 2026-05-06 19:56 | 41.80896 | -76.30633 | 30322 ft | 545 kts | 49° |
| 2026-05-06 19:56 | 41.83112 | -76.26502 | 29582 ft | 541 kts | 48° |
| 2026-05-06 19:57 | 41.85312 | -76.22496 | 29077 ft | 529 kts | 45° |
| 2026-05-06 19:57 | 41.87825 | -76.19082 | 28548 ft | 507 kts | 31° |
| 2026-05-06 19:57 | 41.90722 | -76.16531 | 27982 ft | 483 kts | 17° |
| 2026-05-06 19:57 | 41.93765 | -76.14912 | 27403 ft | 459 kts | 5° |
| 2026-05-06 19:58 | 41.96798 | -76.14147 | 26832 ft | 437 kts | 354° |
| 2026-05-06 19:58 | 41.99791 | -76.14135 | 26250 ft | 416 kts | 344° |
| 2026-05-06 19:58 | 42.02572 | -76.14752 | 25665 ft | 400 kts | 336° |
| 2026-05-06 19:58 | 42.05272 | -76.15607 | 25081 ft | 395 kts | 336° |
| 2026-05-06 19:59 | 42.07939 | -76.16451 | 24508 ft | 390 kts | 337° |
| 2026-05-06 19:59 | 42.10533 | -76.17273 | 23945 ft | 386 kts | 338° |
| 2026-05-06 19:59 | 42.13146 | -76.18102 | 23359 ft | 381 kts | 338° |
| 2026-05-06 19:59 | 42.15709 | -76.18913 | 22768 ft | 371 kts | 338° |
| 2026-05-06 20:00 | 42.18206 | -76.19707 | 22117 ft | 371 kts | 338° |
| 2026-05-06 20:00 | 42.20723 | -76.20512 | 21399 ft | 371 kts | 338° |
| 2026-05-06 20:00 | 42.23260 | -76.21323 | 20664 ft | 372 kts | 339° |
| 2026-05-06 20:00 | 42.25566 | -76.22060 | 20014 ft | 373 kts | 339° |
| 2026-05-06 20:01 | 42.28103 | -76.22871 | 19278 ft | 373 kts | 339° |
| 2026-05-06 20:01 | 42.30629 | -76.23679 | 18551 ft | 373 kts | 339° |
| 2026-05-06 20:01 | 42.33186 | -76.24498 | 17825 ft | 373 kts | 339° |
| 2026-05-06 20:01 | 42.35691 | -76.25301 | 17110 ft | 373 kts | 339° |
| 2026-05-06 20:02 | 42.38221 | -76.26111 | 16370 ft | 372 kts | 339° |
| 2026-05-06 20:02 | 42.40728 | -76.26911 | 15626 ft | 365 kts | 339° |
| 2026-05-06 20:02 | 42.43184 | -76.27698 | 14936 ft | 363 kts | 339° |
| 2026-05-06 20:02 | 42.45682 | -76.28500 | 14197 ft | 362 kts | 339° |
| 2026-05-06 20:03 | 42.48129 | -76.29286 | 13482 ft | 361 kts | 339° |
| 2026-05-06 20:03 | 42.50541 | -76.29972 | 12781 ft | 353 kts | 346° |
| 2026-05-06 20:03 | 42.52989 | -76.29928 | 12265 ft | 348 kts | 2° |
| 2026-05-06 20:03 | 42.55340 | -76.29224 | 11731 ft | 339 kts | 8° |
| 2026-05-06 20:04 | 42.57606 | -76.28542 | 11206 ft | 324 kts | 360° |
| 2026-05-06 20:04 | 42.59779 | -76.28773 | 10682 ft | 302 kts | 340° |
| 2026-05-06 20:04 | 42.61787 | -76.29436 | 10149 ft | 293 kts | 338° |
| 2026-05-06 20:04 | 42.63753 | -76.30110 | 9625 ft | 287 kts | 339° |
| 2026-05-06 20:05 | 42.65665 | -76.30775 | 9096 ft | 282 kts | 339° |
| 2026-05-06 20:05 | 42.67553 | -76.31456 | 8565 ft | 279 kts | 339° |
| 2026-05-06 20:05 | 42.69426 | -76.32165 | 8028 ft | 277 kts | 339° |
| 2026-05-06 20:05 | 42.71277 | -76.32887 | 7419 ft | 276 kts | 338° |
| 2026-05-06 20:06 | 42.73126 | -76.33630 | 6827 ft | 271 kts | 338° |
| 2026-05-06 20:06 | 42.74921 | -76.34367 | 6246 ft | 266 kts | 339° |
| 2026-05-06 20:06 | 42.76646 | -76.35101 | 5680 ft | 260 kts | 338° |
| 2026-05-06 20:06 | 42.78365 | -76.35859 | 5107 ft | 256 kts | 339° |
| 2026-05-06 20:07 | 42.80045 | -76.36626 | 4546 ft | 251 kts | 339° |
| 2026-05-06 20:07 | 42.81672 | -76.37412 | 4153 ft | 247 kts | 338° |
| 2026-05-06 20:07 | 42.83288 | -76.38223 | 3762 ft | 246 kts | 339° |
| 2026-05-06 20:07 | 42.84914 | -76.39045 | 3338 ft | 244 kts | 339° |
| 2026-05-06 20:08 | 42.86483 | -76.39850 | 3007 ft | 237 kts | 338° |
| 2026-05-06 20:08 | 42.87974 | -76.40620 | 2967 ft | 222 kts | 338° |
| 2026-05-06 20:08 | 42.89443 | -76.41377 | 2970 ft | 225 kts | 338° |
| 2026-05-06 20:08 | 42.90913 | -76.42137 | 2964 ft | 225 kts | 338° |
| 2026-05-06 20:09 | 42.92384 | -76.42894 | 2965 ft | 225 kts | 339° |
| 2026-05-06 20:09 | 42.93843 | -76.43649 | 2969 ft | 225 kts | 339° |
| 2026-05-06 20:09 | 42.95317 | -76.44411 | 2979 ft | 225 kts | 339° |
| 2026-05-06 20:09 | 42.96802 | -76.45180 | 2977 ft | 225 kts | 339° |
| 2026-05-06 20:10 | 42.98263 | -76.45945 | 2997 ft | 226 kts | 339° |
| 2026-05-06 20:10 | 42.99748 | -76.46703 | 2987 ft | 225 kts | 340° |
| 2026-05-06 20:10 | 43.01214 | -76.47459 | 2976 ft | 225 kts | 338° |
| 2026-05-06 20:10 | 43.02689 | -76.48225 | 2972 ft | 225 kts | 340° |
| 2026-05-06 20:11 | 43.04156 | -76.48972 | 2994 ft | 225 kts | 339° |
| 2026-05-06 20:11 | 43.05648 | -76.49734 | 2982 ft | 225 kts | 338° |
| 2026-05-06 20:11 | 43.07111 | -76.50493 | 2986 ft | 225 kts | 339° |
| 2026-05-06 20:11 | 43.08598 | -76.51241 | 2989 ft | 226 kts | 342° |
| 2026-05-06 20:12 | 43.10164 | -76.51304 | 2980 ft | 229 kts | 15° |
| 2026-05-06 20:12 | 43.11479 | -76.50067 | 2999 ft | 237 kts | 50° |
| 2026-05-06 20:12 | 43.12052 | -76.47934 | 3003 ft | 244 kts | 83° |
| 2026-05-06 20:12 | 43.12091 | -76.45614 | 2998 ft | 245 kts | 88° |
| 2026-05-06 20:13 | 43.12080 | -76.43265 | 2992 ft | 245 kts | 88° |
| 2026-05-06 20:13 | 43.12065 | -76.40921 | 2993 ft | 246 kts | 88° |
| 2026-05-06 20:13 | 43.12048 | -76.38581 | 2980 ft | 246 kts | 88° |
| 2026-05-06 20:13 | 43.12025 | -76.36230 | 2994 ft | 246 kts | 89° |
| 2026-05-06 20:14 | 43.12036 | -76.33869 | 2990 ft | 244 kts | 83° |
| 2026-05-06 20:14 | 43.12257 | -76.31570 | 2992 ft | 243 kts | 78° |
| 2026-05-06 20:14 | 43.12524 | -76.29282 | 2994 ft | 243 kts | 78° |
| 2026-05-06 20:14 | 43.12793 | -76.26993 | 2994 ft | 243 kts | 78° |
| 2026-05-06 20:15 | 43.13060 | -76.24707 | 2995 ft | 244 kts | 78° |
| 2026-05-06 20:15 | 43.13330 | -76.22401 | 2996 ft | 243 kts | 78° |
| 2026-05-06 20:15 | 43.13601 | -76.20099 | 2992 ft | 244 kts | 78° |
| 2026-05-06 20:15 | 43.13876 | -76.17785 | 2993 ft | 244 kts | 78° |
| 2026-05-06 20:16 | 43.14149 | -76.15484 | 2994 ft | 243 kts | 78° |
| 2026-05-06 20:16 | 43.14412 | -76.13243 | 3008 ft | 230 kts | 78° |
| 2026-05-06 20:16 | 43.14660 | -76.11116 | 3007 ft | 225 kts | 78° |
| 2026-05-06 20:16 | 43.14907 | -76.09007 | 2997 ft | 224 kts | 78° |
| 2026-05-06 20:17 | 43.15151 | -76.06880 | 2989 ft | 224 kts | 78° |
| 2026-05-06 20:17 | 43.15394 | -76.04771 | 2994 ft | 224 kts | 78° |
| 2026-05-06 20:17 | 43.15640 | -76.02656 | 2990 ft | 224 kts | 78° |
| 2026-05-06 20:17 | 43.15883 | -76.00531 | 2990 ft | 224 kts | 78° |
| 2026-05-06 20:18 | 43.16123 | -75.98425 | 2991 ft | 224 kts | 78° |
| 2026-05-06 20:18 | 43.16369 | -75.96289 | 2990 ft | 224 kts | 78° |
| 2026-05-06 20:18 | 43.16617 | -75.94178 | 2987 ft | 223 kts | 77° |
| 2026-05-06 20:18 | 43.16856 | -75.92084 | 2988 ft | 224 kts | 78° |
| 2026-05-06 20:19 | 43.17098 | -75.89967 | 2988 ft | 224 kts | 78° |
| 2026-05-06 20:19 | 43.17340 | -75.87839 | 2976 ft | 224 kts | 78° |
| 2026-05-06 20:19 | 43.17583 | -75.85729 | 2974 ft | 225 kts | 78° |
| 2026-05-06 20:19 | 43.17819 | -75.83596 | 2869 ft | 227 kts | 82° |
| 2026-05-06 20:20 | 43.17542 | -75.81491 | 2691 ft | 229 kts | 118° |
| 2026-05-06 20:20 | 43.16405 | -75.80027 | 2567 ft | 225 kts | 159° |
| 2026-05-06 20:20 | 43.14875 | -75.79845 | 2574 ft | 220 kts | 198° |
| 2026-05-06 20:20 | 43.13629 | -75.80943 | 2578 ft | 206 kts | 233° |
| 2026-05-06 20:21 | 43.12799 | -75.82417 | 2600 ft | 189 kts | 237° |
| 2026-05-06 20:21 | 43.12055 | -75.83915 | 2579 ft | 186 kts | 247° |
| 2026-05-06 20:21 | 43.11717 | -75.85599 | 2567 ft | 182 kts | 266° |
| 2026-05-06 20:21 | 43.11626 | -75.87312 | 2579 ft | 173 kts | 270° |
| 2026-05-06 20:22 | 43.11572 | -75.88868 | 2607 ft | 156 kts | 271° |
| 2026-05-06 20:22 | 43.11525 | -75.90325 | 2596 ft | 151 kts | 271° |
| 2026-05-06 20:22 | 43.11483 | -75.91734 | 2591 ft | 147 kts | 271° |
| 2026-05-06 20:22 | 43.11441 | -75.93170 | 2565 ft | 147 kts | 271° |
| 2026-05-06 20:23 | 43.11398 | -75.94569 | 2577 ft | 149 kts | 271° |
| 2026-05-06 20:23 | 43.11354 | -75.95982 | 2573 ft | 148 kts | 271° |
| 2026-05-06 20:23 | 43.11308 | -75.97407 | 2575 ft | 149 kts | 271° |
| 2026-05-06 20:23 | 43.11263 | -75.98793 | 2514 ft | 139 kts | 271° |
| 2026-05-06 20:24 | 43.11220 | -76.00123 | 2042 ft | 139 kts | 271° |
| 2026-05-06 20:24 | 43.11179 | -76.01347 | 2013 ft | 125 kts | 271° |
| 2026-05-06 20:24 | 43.11142 | -76.02570 | 2015 ft | 129 kts | 271° |
| 2026-05-06 20:24 | 43.11106 | -76.03769 | 1995 ft | 128 kts | 272° |
| 2026-05-06 20:25 | 43.11068 | -76.04967 | 1988 ft | 129 kts | 271° |
| 2026-05-06 20:25 | 43.11027 | -76.06151 | 1955 ft | 115 kts | 271° |
| 2026-05-06 20:25 | 43.10989 | -76.07262 | 1333 ft | 130 kts | 271° |
| 2026-05-06 20:25 | 43.10961 | -76.08530 | 574 ft | 133 kts | 264° |
| 2026-05-06 20:26 | 43.10914 | -76.09703 | 427 ft | 117 kts | 270° |
| 2026-05-06 20:26 | 43.10887 | -76.10654 | 422 ft | 70 kts | 266° |
| 2026-05-06 20:26 | 43.10868 | -76.11153 | 422 ft | 42 kts | 262° |
| 2026-05-06 20:26 | 43.10899 | -76.11321 | 422 ft | 14 kts | 328° |
| 2026-05-06 20:27 | 43.10955 | -76.11368 | 422 ft | 5 kts | 327° |
| 2026-05-06 20:27 | 43.10980 | -76.11407 | 422 ft | 8 kts | 286° |
| 2026-05-06 20:27 | 43.10979 | -76.11515 | 422 ft | 14 kts | 268° |
| 2026-05-06 20:27 | 43.10974 | -76.11677 | 422 ft | 16 kts | 266° |
| 2026-05-06 20:28 | 43.10968 | -76.11855 | 422 ft | 18 kts | 267° |
| 2026-05-06 20:28 | 43.10963 | -76.12035 | 422 ft | 20 kts | 266° |
| 2026-05-06 20:28 | 43.10954 | -76.12239 | 422 ft | 20 kts | 268° |
| 2026-05-06 20:28 | 43.10949 | -76.12437 | 422 ft | 20 kts | 268° |
| 2026-05-06 20:29 | 43.10942 | -76.12642 | 422 ft | 20 kts | 268° |
| 2026-05-06 20:29 | 43.10937 | -76.12806 | 422 ft | 17 kts | 268° |
| 2026-05-06 20:29 | 43.10949 | -76.12945 | 422 ft | 12 kts | 316° |
| 2026-05-06 20:29 | 43.11004 | -76.13013 | 422 ft | 12 kts | 318° |
| 2026-05-06 20:30 | 43.11069 | -76.13085 | 422 ft | 7 kts | 338° |
| 2026-05-06 20:30 | 43.11132 | -76.13075 | 422 ft | 0 kts | 53° |
| 2026-05-06 20:30 | 43.11137 | -76.13070 | 422 ft | 4 kts | 25° |
| 2026-05-06 20:31 | 43.11173 | -76.13065 | 422 ft | 3 kts | 40° |
| 2026-05-06 20:31 | 43.11175 | -76.13062 | 422 ft | 0 kts | 48° |